Tuckahoe, Virginia
Current Conditions -  °F | °C
As of 11:54 PM on Saturday 22 Nov 2014 (Local Time) from KOFP Reporting Station
Clear Clear  
Wind Chill: 33°   Ceiling: Unl
Heat Index: 38°   Visibility: 10mi
Dew Point: 17°   Wind: 6mph
Humidity: 43%   Direction: 190°S
Pressure: 30.31"   Gusts: NA
Location:  37.5871°N, 77.5706°W
Report Text: KOFP 230454Z AUTO 19005KT 10SM CLR 03/M08 A3031 RMK AO2 SLP265 T00331083 401061078
Loading
Personal Weather Stations






























Interactive Weather Map New forecast layout! Learn more

10-Day Weather Forecast

Advertisements
Track Severe Weather on mobile